createdAt,value
2022-11-30T02:38:52.354Z,70.65
2022-11-30T06:09:15.528Z,78.35
2022-11-30T06:11:42.823Z,77.57
2022-11-30T06:14:10.442Z,74.80
2022-11-30T06:16:39.760Z,69.20
2022-11-30T06:19:13.208Z,73.63
2022-11-30T06:21:40.629Z,80.72
2022-11-30T06:24:08.407Z,70.18
2022-11-30T06:26:35.761Z,72.95
2022-11-30T06:29:03.285Z,72.78
2022-11-30T06:48:23.118Z,80.20
2022-11-30T07:17:04.765Z,70.07
2022-11-30T07:19:34.508Z,74.75
2022-11-30T07:22:01.991Z,79.72
2022-11-30T07:33:08.463Z,77.97
2022-11-30T07:35:35.825Z,77.07
2022-11-30T07:38:09.517Z,69.45
2022-11-30T07:50:11.415Z,70.85
2022-11-30T07:52:38.830Z,69.95
2022-11-30T07:55:06.865Z,73.07
2022-11-30T07:57:42.302Z,67.68
2022-11-30T08:00:10.191Z,73.78
2022-11-30T08:02:37.695Z,75.97
2022-11-30T08:05:05.418Z,69.07
2022-11-30T08:07:33.013Z,69.65
2022-11-30T08:10:00.353Z,70.10
2022-11-30T08:12:27.900Z,67.93
2022-11-30T08:15:19.204Z,68.88
2022-11-30T08:17:42.686Z,68.05
2022-11-30T08:20:11.682Z,70.25
2022-11-30T08:22:40.431Z,72.60
2022-11-30T08:25:08.244Z,66.60
2022-11-30T08:27:37.100Z,71.38
2022-11-30T08:30:05.008Z,69.60
2022-11-30T08:32:32.875Z,71.68
2022-11-30T08:35:00.679Z,70.30
2022-11-30T08:37:28.074Z,70.65
2022-11-30T08:39:55.442Z,70.88
2022-11-30T08:42:22.972Z,72.93
2022-11-30T08:44:50.331Z,69.03
2022-11-30T08:47:17.861Z,76.22
2022-11-30T08:49:45.347Z,68.53
2022-11-30T08:52:17.498Z,69.20
2022-11-30T08:54:47.224Z,67.50
2022-11-30T08:57:17.556Z,73.22
2022-11-30T08:59:45.301Z,78.55
2022-11-30T09:02:16.954Z,67.82
2022-11-30T09:04:44.686Z,72.78
2022-11-30T09:07:11.995Z,74.55
2022-11-30T09:09:39.568Z,66.80
2022-11-30T09:12:07.739Z,67.75
2022-11-30T09:14:35.186Z,73.60
2022-11-30T09:17:03.340Z,70.97
2022-11-30T09:19:30.754Z,76.93
2022-11-30T09:21:58.341Z,66.65
2022-11-30T09:24:25.834Z,75.85
2022-11-30T09:26:56.116Z,74.55
2022-11-30T09:29:25.498Z,70.10
2022-11-30T09:31:52.879Z,66.57
2022-11-30T09:34:20.338Z,70.55
2022-11-30T09:36:47.964Z,77.43
2022-11-30T09:39:15.525Z,73.15
2022-11-30T09:42:04.536Z,68.15
2022-11-30T09:45:07.285Z,75.93
2022-11-30T09:47:53.401Z,71.60
2022-11-30T09:50:22.422Z,76.38
2022-11-30T09:52:55.501Z,72.78
2022-11-30T09:55:30.232Z,64.32
2022-11-30T09:58:02.392Z,70.70
2022-11-30T10:01:43.560Z,67.32
2022-11-30T10:04:21.659Z,73.82
2022-11-30T10:07:28.023Z,72.72
2022-11-30T10:10:35.457Z,78.18
2022-11-30T10:13:23.972Z,69.22
2022-11-30T10:16:30.415Z,69.55
2022-11-30T10:23:35.990Z,64.22
2022-11-30T10:26:15.516Z,61.55
2022-11-30T10:28:53.843Z,68.68
2022-11-30T10:31:29.387Z,69.85
2022-11-30T10:33:59.395Z,66.07
2022-11-30T10:36:33.553Z,68.63
2022-11-30T10:39:04.040Z,67.05
2022-11-30T10:41:35.367Z,65.78
2022-11-30T10:44:06.649Z,74.65
2022-11-30T10:46:37.528Z,70.80
2022-11-30T10:49:08.148Z,64.35
2022-11-30T10:51:47.148Z,73.22
2022-11-30T10:54:19.734Z,74.25
2022-11-30T10:56:47.598Z,65.43
2022-11-30T10:59:31.580Z,62.38
2022-11-30T11:01:58.943Z,62.17
2022-11-30T11:08:51.751Z,67.90
2022-11-30T11:11:45.572Z,71.20
2022-11-30T11:14:19.736Z,67.88
2022-11-30T11:16:53.402Z,75.13
2022-11-30T11:19:27.728Z,66.22
2022-11-30T11:21:55.131Z,71.18
2022-11-30T11:24:26.900Z,68.43
2022-11-30T11:26:55.640Z,64.72
2022-11-30T11:29:31.682Z,69.88
2022-11-30T11:32:20.498Z,63.42
2022-11-30T11:34:51.228Z,63.80
2022-11-30T11:37:30.845Z,74.88
2022-11-30T11:40:25.113Z,64.80
2022-11-30T11:42:54.734Z,74.68
2022-11-30T11:45:23.881Z,66.03
2022-11-30T11:48:31.401Z,64.85
2022-11-30T11:51:11.890Z,74.63
2022-11-30T11:53:56.161Z,70.90
2022-11-30T11:56:33.062Z,71.63
2022-11-30T11:59:50.793Z,72.53
2022-11-30T12:02:24.103Z,72.63
2022-11-30T12:05:19.863Z,70.07
2022-11-30T12:07:59.258Z,62.77
2022-11-30T12:10:52.109Z,65.75
2022-11-30T12:13:22.631Z,71.13
2022-11-30T12:16:10.427Z,76.70
2022-11-30T12:18:44.872Z,69.82
2022-11-30T12:21:21.337Z,70.28
2022-11-30T12:24:04.218Z,78.40
2022-11-30T12:26:44.755Z,76.13
2022-11-30T12:29:31.995Z,70.78
2022-11-30T12:32:21.008Z,72.63
2022-11-30T12:35:00.218Z,72.40
2022-11-30T12:37:47.696Z,81.15
2022-11-30T12:40:53.152Z,80.95
2022-11-30T12:43:39.508Z,83.22
2022-11-30T12:46:29.648Z,76.90
2022-11-30T12:49:40.132Z,71.70
2022-11-30T12:52:19.551Z,89.97
2022-11-30T12:55:11.485Z,87.35
2022-11-30T12:57:51.966Z,88.40
2022-11-30T13:00:21.937Z,86.75
2022-11-30T13:03:11.040Z,81.30
2022-11-30T13:05:44.484Z,78.03
2022-11-30T13:08:26.210Z,87.40
2022-11-30T13:11:00.462Z,91.45
2022-11-30T13:13:33.808Z,74.53
2022-11-30T13:16:05.013Z,80.28
2022-11-30T13:18:34.745Z,84.70
2022-11-30T13:21:07.324Z,74.95
2022-11-30T13:23:42.442Z,81.10
2022-11-30T13:26:34.189Z,75.80
2022-11-30T13:29:23.958Z,89.47
2022-11-30T13:32:05.658Z,71.80
2022-11-30T13:34:33.354Z,75.47
2022-11-30T13:37:27.075Z,80.07
2022-11-30T13:39:56.215Z,86.03
2022-11-30T13:42:36.875Z,78.85
2022-11-30T13:45:13.228Z,88.70
2022-11-30T13:47:45.828Z,89.75
2022-11-30T13:50:25.888Z,82.40
2022-11-30T13:53:18.475Z,95.35
2022-11-30T13:55:48.590Z,89.55
2022-11-30T13:58:17.938Z,100.40
2022-11-30T14:00:46.919Z,88.05
2022-11-30T14:03:20.284Z,94.45
2022-11-30T14:05:58.510Z,89.55
2022-11-30T14:08:33.443Z,88.80
2022-11-30T14:11:20.779Z,92.80
2022-11-30T14:13:48.248Z,96.25
2022-11-30T14:16:27.591Z,89.60
2022-11-30T14:18:57.092Z,93.78
2022-11-30T14:21:31.185Z,95.05
2022-11-30T14:24:04.103Z,103.97
2022-11-30T14:26:40.740Z,92.18
2022-11-30T14:29:16.861Z,103.40
2022-11-30T14:32:08.553Z,102.68
2022-11-30T14:34:39.135Z,111.85
2022-11-30T14:37:16.508Z,97.07
2022-11-30T14:39:47.076Z,97.72
2022-11-30T16:35:30.152Z,98.22
2022-11-30T16:40:25.052Z,99.85
2022-11-30T16:42:52.834Z,105.05
2022-11-30T16:45:24.856Z,101.18
2022-11-30T16:47:52.780Z,93.45
2022-11-30T16:50:20.347Z,94.05
2022-11-30T16:52:47.847Z,110.40
2022-11-30T16:55:21.888Z,99.13
2022-11-30T16:57:50.375Z,99.10
2022-11-30T17:00:19.076Z,92.75
2022-11-30T17:03:11.431Z,104.93
2022-11-30T17:05:38.836Z,102.22
2022-11-30T17:08:06.391Z,103.15
2022-11-30T17:10:33.846Z,98.32
2022-11-30T17:13:01.247Z,109.20
2022-11-30T17:15:28.811Z,103.38
2022-11-30T17:17:59.356Z,102.72
2022-11-30T17:20:28.785Z,99.97
2022-11-30T17:22:57.306Z,105.20
2022-11-30T17:25:24.870Z,97.18
2022-11-30T17:27:52.585Z,98.78
2022-11-30T17:30:21.210Z,97.20
2022-11-30T17:32:48.599Z,97.25
2022-11-30T17:35:16.353Z,101.68
2022-11-30T17:37:43.801Z,101.68
2022-11-30T17:40:13.156Z,91.72
2022-11-30T17:51:31.179Z,101.38
2022-11-30T19:16:02.374Z,94.05
2022-11-30T19:18:30.268Z,89.85
2022-11-30T19:21:00.805Z,82.80
2022-11-30T19:23:30.466Z,98.28
2022-11-30T19:26:11.634Z,91.10
2022-11-30T19:28:41.926Z,99.60
2022-11-30T19:31:17.589Z,95.05
2022-11-30T19:36:20.198Z,93.13
2022-11-30T19:38:48.537Z,96.88
2022-11-30T19:41:16.295Z,94.07
2022-11-30T19:43:53.771Z,99.90
2022-11-30T19:46:23.493Z,101.13
2022-11-30T19:49:00.489Z,96.78
2022-11-30T19:51:29.958Z,98.63
2022-11-30T19:53:59.433Z,107.18
2022-11-30T19:56:29.032Z,98.03
2022-11-30T20:03:15.724Z,102.97
